NCAR-RAP Real-Time Weather Data

Output produced by METARs form (17 December 2018  15:44 UTC)
found at http://weather.rap.ucar.edu/surface/
 
RJKA 171000Z 34010KT 310V010 9999 FEW040 16/07 Q1019
 
ROAH 171530Z 35015KT 9999 FEW040 SCT050 17/07 Q1021 RMK 1CU040 3SC050 A3017
 
RODN 171456Z AUTO 35011KT 10SM FEW047 16/07 A3017 RMK AO2 SLP224 T01630070 402120161 50000 PWINO $
 
ROIG 171100Z 01012KT 9999 FEW034 SCT040 17/10 Q1022
 
ROMY 171100Z 01009KT 330V050 9999 SCT035 17/11 Q1022
 
RORS 171000Z 02019KT 9999 FEW035 BKN040 18/10 Q1021